This is the latest recevied weather packets stored in our database for station/object E27EKO-13. If no packets are shown the sender has not sent any weather packets the latest 10 day(s).
| Time | Temp. | Humidity | Pressure | Rain* | Wind** | Luminosity | Snow |
|---|---|---|---|---|---|---|---|
| 1787822460 | 36.67° C | 54% | 1005 hPa | - | - | 0 W/m² | - |
| 1787822138 | 37.22° C | 53% | 1005 hPa | - | - | 0 W/m² | - |
| 1787821816 | 37.22° C | 52% | 1005 hPa | - | - | 0 W/m² | - |
| 1787821494 | 37.78° C | 52% | 1005 hPa | - | - | 0 W/m² | - |
| 1787821172 | 37.78° C | 52% | 1005 hPa | - | - | 0 W/m² | - |
| 1787820850 | 38.89° C | 50% | 1005 hPa | - | - | 0 W/m² | - |
| 1787820528 | 38.33° C | 52% | 1005 hPa | - | - | 0 W/m² | - |
| 1787820206 | 37.22° C | 55% | 1005 hPa | - | - | 0 W/m² | - |
| 1787819884 | 37.22° C | 55% | 1005 hPa | - | - | 0 W/m² | - |
| 1787819562 | 37.78° C | 54% | 1005 hPa | - | - | 0 W/m² | - |
| 1787819240 | 37.78° C | 54% | 1005 hPa | - | - | 0 W/m² | - |
| 1787818918 | 37.22° C | 55% | 1005 hPa | - | - | 0 W/m² | - |
| 1787818780 | 37.22° C | 55% | 1005 hPa | - | - | 0 W/m² | - |
| 1787818458 | 37.22° C | 55% | 1005 hPa | - | - | 0 W/m² | - |
| 1787818136 | 37.22° C | 55% | 1005 hPa | - | - | 0 W/m² | - |
| 1787817816 | 37.22° C | 55% | 1005 hPa | - | - | 0 W/m² | - |
| 1787817492 | 37.78° C | 55% | 1005 hPa | - | - | 0 W/m² | - |
| 1787817170 | 37.78° C | 54% | 1005 hPa | - | - | 0 W/m² | - |
| 1787816848 | 37.78° C | 55% | 1005 hPa | - | - | 0 W/m² | - |
| 1787816526 | 37.78° C | 55% | 1005 hPa | - | - | 0 W/m² | - |
| 1787816204 | 37.78° C | 55% | 1005 hPa | - | - | 0 W/m² | - |
| 1787815882 | 37.22° C | 55% | 1005 hPa | - | - | 0 W/m² | - |
| 1787815560 | 37.22° C | 56% | 1005 hPa | - | - | 0 W/m² | - |
| 1787815238 | 37.78° C | 55% | 1005 hPa | - | - | 0 W/m² | - |
| 1787814842 | 37.78° C | 54% | 1005 hPa | - | - | 0 W/m² | - |
* Rain since midnight (hover to see other rain measurements)
** Current wind speed in m/s (hover to see current wind gust speed)